createdAt,value
2023-03-31T12:12:11.557Z,63.31
2023-03-31T12:14:46.775Z,63.36
2023-03-31T12:17:20.235Z,63.07
2023-03-31T12:20:02.325Z,63.34
2023-03-31T12:22:30.954Z,63.76
2023-03-31T12:24:59.826Z,63.09
2023-03-31T12:27:43.280Z,63.87
2023-03-31T12:30:37.939Z,63.03
2023-03-31T12:33:28.283Z,63.67
2023-03-31T12:36:18.903Z,63.47
2023-03-31T12:39:01.720Z,62.66
2023-03-31T12:41:55.080Z,62.57
2023-03-31T12:44:51.216Z,62.67
2023-03-31T12:47:46.475Z,63.07
2023-03-31T12:50:53.331Z,63.56
2023-03-31T12:53:34.230Z,63.64
2023-03-31T12:56:03.030Z,63.23
2023-03-31T12:58:33.258Z,63.15
2023-03-31T13:01:07.462Z,62.85
2023-03-31T13:03:36.472Z,62.44
2023-03-31T13:06:05.685Z,62.42
2023-03-31T13:08:53.326Z,62.62
2023-03-31T13:11:23.721Z,63.30
2023-03-31T13:14:02.159Z,63.77
2023-03-31T13:20:30.544Z,64.04
2023-03-31T13:23:25.609Z,63.51
2023-03-31T13:25:56.424Z,64.48
2023-03-31T13:28:44.964Z,64.77
2023-03-31T13:31:16.171Z,64.54
2023-03-31T13:33:58.141Z,63.76
2023-03-31T13:36:42.047Z,64.22
2023-03-31T13:39:42.925Z,64.45
2023-03-31T13:42:30.062Z,63.70
2023-03-31T13:45:08.519Z,65.08
2023-03-31T13:47:44.698Z,65.72
2023-03-31T13:50:16.609Z,65.06
2023-03-31T13:53:19.061Z,65.53
2023-03-31T13:56:27.370Z,65.86
2023-03-31T13:59:17.274Z,65.79
2023-03-31T14:02:04.592Z,66.32
2023-03-31T14:04:36.988Z,66.67
2023-03-31T14:07:11.513Z,66.76
2023-03-31T14:09:49.882Z,66.82
2023-03-31T14:12:33.606Z,67.02
2023-03-31T14:15:04.355Z,67.16
2023-03-31T14:17:41.200Z,66.28
2023-03-31T14:20:31.448Z,65.92
2023-03-31T14:23:06.859Z,66.63
2023-03-31T14:26:34.465Z,67.11
2023-03-31T14:29:18.578Z,67.04
2023-03-31T14:32:17.293Z,66.89
2023-03-31T14:34:52.599Z,67.01
2023-03-31T14:37:23.034Z,67.20
2023-03-31T14:39:56.590Z,67.35
2023-03-31T14:42:30.147Z,67.88
2023-03-31T14:45:05.596Z,67.72
2023-03-31T14:47:34.535Z,67.50
2023-03-31T14:50:15.290Z,67.74
2023-03-31T14:52:52.605Z,68.18
2023-03-31T14:55:31.805Z,67.78
2023-03-31T14:58:15.045Z,67.67
2023-03-31T15:00:43.895Z,67.53
2023-03-31T15:03:15.714Z,67.51
2023-03-31T15:05:49.153Z,67.32
2023-03-31T15:08:24.468Z,66.63
2023-03-31T15:11:02.359Z,66.24
2023-03-31T15:14:00.988Z,66.04
2023-03-31T15:16:48.629Z,66.00
2023-03-31T15:19:25.375Z,66.22
2023-03-31T15:22:14.295Z,65.88
2023-03-31T15:24:42.758Z,65.70
2023-03-31T15:27:37.021Z,65.35
2023-03-31T15:30:17.262Z,65.29
2023-03-31T15:32:46.228Z,65.30
2023-03-31T15:35:22.651Z,65.57
2023-03-31T15:37:54.402Z,65.20
2023-03-31T15:40:39.932Z,64.91
2023-03-31T15:43:25.397Z,64.54
2023-03-31T15:45:59.681Z,64.74
2023-03-31T15:48:36.276Z,64.50
2023-03-31T15:51:17.833Z,64.72
2023-03-31T15:53:47.369Z,64.95
2023-03-31T15:59:57.144Z,65.05
2023-03-31T16:02:35.214Z,64.90
2023-03-31T16:05:10.633Z,65.32
2023-03-31T16:07:44.830Z,65.51
2023-03-31T16:10:22.761Z,66.10
2023-03-31T16:13:05.889Z,66.18
2023-03-31T16:15:43.178Z,66.65
2023-03-31T16:18:41.246Z,66.57
2023-03-31T16:21:11.033Z,66.42
2023-03-31T16:23:41.789Z,66.44
2023-03-31T16:26:11.620Z,66.13
2023-03-31T16:28:41.373Z,66.56
2023-03-31T16:31:29.969Z,66.35
2023-03-31T16:33:58.502Z,66.35
2023-03-31T16:36:27.594Z,66.59
2023-03-31T16:38:56.352Z,66.98
2023-03-31T16:41:28.459Z,66.29
2023-03-31T16:43:59.345Z,66.55
2023-03-31T16:46:28.164Z,66.69
2023-03-31T16:48:56.894Z,66.96
2023-03-31T16:51:26.436Z,67.53
2023-03-31T16:53:57.576Z,67.98
2023-03-31T16:56:27.952Z,68.13
2023-03-31T16:58:56.578Z,68.31
2023-03-31T17:01:25.637Z,68.29
2023-03-31T17:03:55.505Z,68.38
2023-03-31T17:06:25.874Z,68.31
2023-03-31T17:08:54.200Z,68.55
2023-03-31T17:11:23.048Z,68.94
2023-03-31T17:13:53.239Z,68.75
2023-03-31T17:16:29.760Z,68.66
2023-03-31T17:19:05.109Z,68.63
2023-03-31T17:21:34.709Z,68.76
2023-03-31T17:24:06.982Z,68.63
2023-03-31T17:26:37.768Z,69.12
2023-03-31T17:29:06.469Z,69.22
2023-03-31T17:31:35.341Z,68.90
2023-03-31T17:34:03.778Z,69.23
2023-03-31T17:36:32.689Z,69.62
2023-03-31T17:39:01.391Z,69.76
2023-03-31T17:41:30.085Z,69.82
2023-03-31T17:43:58.972Z,69.93
2023-03-31T17:46:27.588Z,69.73
2023-03-31T17:48:58.681Z,69.94
2023-03-31T17:51:27.943Z,70.34
2023-03-31T17:53:56.687Z,70.33
2023-03-31T17:56:26.455Z,70.53
2023-03-31T17:58:56.350Z,70.82
2023-03-31T18:01:25.009Z,71.42
2023-03-31T18:03:55.759Z,71.48
2023-03-31T18:06:25.192Z,72.01
2023-03-31T18:08:55.839Z,72.22
2023-03-31T18:11:24.893Z,72.38
2023-03-31T18:13:55.830Z,72.32
2023-03-31T18:16:27.731Z,72.45
2023-03-31T18:18:58.665Z,72.46
2023-03-31T18:21:28.313Z,72.30
2023-03-31T18:23:57.218Z,72.91
2023-03-31T18:26:27.340Z,73.78
2023-03-31T18:28:56.164Z,73.72
2023-03-31T18:31:27.361Z,74.58
2023-03-31T18:33:55.896Z,74.79
2023-03-31T18:36:24.643Z,74.93
2023-03-31T18:38:53.683Z,74.94
2023-03-31T18:41:23.236Z,74.70
2023-03-31T18:43:53.286Z,74.79
2023-03-31T18:46:22.028Z,74.64
2023-03-31T18:48:54.451Z,74.22
2023-03-31T18:51:23.054Z,73.93
2023-03-31T18:53:54.341Z,73.98
2023-03-31T18:56:23.329Z,73.95
2023-03-31T18:58:51.943Z,73.98
2023-03-31T19:01:21.058Z,74.07
2023-03-31T19:03:49.815Z,74.15
2023-03-31T19:06:21.334Z,74.34
2023-03-31T19:08:52.313Z,73.89
2023-03-31T19:11:20.882Z,73.57
2023-03-31T19:13:49.805Z,73.16
2023-03-31T19:16:18.868Z,73.24
2023-03-31T19:18:48.068Z,73.44
2023-03-31T19:21:17.089Z,74.46
2023-03-31T19:23:45.832Z,74.67
2023-03-31T19:26:16.773Z,75.57
2023-03-31T19:28:46.746Z,75.41
2023-03-31T19:31:17.867Z,75.28
2023-03-31T19:33:46.718Z,75.17
2023-03-31T19:36:15.587Z,75.16
2023-03-31T19:38:52.969Z,75.06
2023-03-31T19:41:22.518Z,74.80
2023-03-31T19:43:54.011Z,74.60
2023-03-31T19:46:22.485Z,74.60
2023-03-31T19:48:53.989Z,74.63
2023-03-31T19:51:26.061Z,74.84
2023-03-31T19:53:54.778Z,75.54
2023-03-31T19:56:28.635Z,75.58
2023-03-31T19:58:57.690Z,75.37
2023-03-31T20:01:28.035Z,75.35
2023-03-31T20:03:56.958Z,75.20
2023-03-31T20:06:29.423Z,75.09
2023-03-31T20:09:00.965Z,75.09
2023-03-31T20:11:32.676Z,75.04
2023-03-31T20:14:05.071Z,75.07
2023-03-31T20:16:34.099Z,74.77
2023-03-31T20:19:07.257Z,74.61
2023-03-31T20:21:38.097Z,74.51
2023-03-31T20:24:07.497Z,74.65
2023-03-31T20:26:38.380Z,74.79
2023-03-31T20:29:08.608Z,74.75
2023-03-31T20:31:38.668Z,74.91
2023-03-31T20:34:13.078Z,74.96
2023-03-31T20:36:43.354Z,75.10
2023-03-31T20:39:14.594Z,75.06
2023-03-31T20:41:44.947Z,75.11
2023-03-31T20:44:16.664Z,75.76
2023-03-31T20:46:47.858Z,76.50
2023-03-31T20:49:17.617Z,77.14
2023-03-31T20:52:04.882Z,76.95
2023-03-31T20:54:33.466Z,76.72
2023-03-31T20:57:07.326Z,76.62
2023-03-31T20:59:36.240Z,76.53
2023-03-31T21:02:04.959Z,76.38
2023-03-31T21:04:33.478Z,76.34
2023-03-31T21:07:04.927Z,76.20
2023-03-31T21:09:34.370Z,76.30
2023-03-31T21:12:06.586Z,76.31
2023-03-31T21:14:35.163Z,76.25
2023-03-31T21:17:03.886Z,76.06
2023-03-31T21:19:32.556Z,76.07
2023-03-31T21:22:00.973Z,76.11
2023-03-31T21:24:29.405Z,76.20
2023-03-31T21:26:57.714Z,76.34
2023-03-31T21:29:26.134Z,76.14
2023-03-31T21:31:54.535Z,76.23
2023-03-31T21:34:23.124Z,76.21
2023-03-31T21:36:51.585Z,76.48
2023-03-31T21:39:19.952Z,76.55
2023-03-31T21:41:48.345Z,76.63
2023-03-31T21:44:16.783Z,76.81
2023-03-31T21:46:45.381Z,76.72
2023-03-31T21:49:14.392Z,76.62
2023-03-31T21:51:43.725Z,76.67
2023-03-31T21:54:12.675Z,76.83
2023-03-31T21:56:41.223Z,76.75
2023-03-31T21:59:09.829Z,76.82
2023-03-31T22:01:38.233Z,76.90
2023-03-31T22:04:07.689Z,76.93
2023-03-31T22:06:37.745Z,77.00
2023-03-31T22:09:06.224Z,76.94
2023-03-31T22:11:34.572Z,77.06
2023-03-31T22:14:03.090Z,77.01
2023-03-31T22:16:31.617Z,77.21
2023-03-31T22:19:00.501Z,77.09
2023-03-31T22:21:41.746Z,77.38
2023-03-31T22:24:13.263Z,77.58
2023-03-31T22:26:41.936Z,77.40
2023-03-31T22:29:14.437Z,77.41
2023-03-31T22:31:43.073Z,77.40
2023-03-31T22:34:11.621Z,77.52
2023-03-31T22:36:40.227Z,77.70
2023-03-31T22:39:08.513Z,77.82
2023-03-31T22:41:37.376Z,77.75
2023-03-31T22:44:06.485Z,77.89
2023-03-31T22:46:37.216Z,77.86
2023-03-31T22:49:05.959Z,77.91
2023-03-31T22:51:35.209Z,77.95
2023-03-31T22:54:03.635Z,78.10
2023-03-31T22:56:32.055Z,78.08
2023-03-31T22:59:00.667Z,78.20
2023-03-31T23:01:29.215Z,78.05
2023-03-31T23:03:57.807Z,78.07
2023-03-31T23:06:26.773Z,78.25
2023-03-31T23:08:56.482Z,78.49
2023-03-31T23:11:26.063Z,78.86
2023-03-31T23:13:54.404Z,79.16
2023-03-31T23:16:26.408Z,78.92
2023-03-31T23:18:56.109Z,79.12
2023-03-31T23:21:27.175Z,79.12
2023-03-31T23:23:58.314Z,79.20
2023-03-31T23:26:28.091Z,78.99
2023-03-31T23:28:59.295Z,78.99
2023-03-31T23:31:33.102Z,78.83
2023-03-31T23:34:01.720Z,78.97
2023-03-31T23:36:31.236Z,78.93
2023-03-31T23:39:00.898Z,79.01
2023-03-31T23:41:29.317Z,78.84
2023-03-31T23:43:58.001Z,79.14
2023-03-31T23:46:26.895Z,78.85
2023-03-31T23:48:56.027Z,78.83
2023-03-31T23:51:24.528Z,78.83
2023-03-31T23:53:53.187Z,78.77
2023-03-31T23:56:22.001Z,78.74
2023-03-31T23:58:50.755Z,78.93
